Time;durP1;ratioP1;P1;durP2;ratioP2;P2;SDS_P1;SDS_P2;PMS_P1;PMS_P2;Temp;Humidity;BMP_temperature;BMP_pressure;BME280_temperature;BME280_humidity;BME280_pressure;Samples;Min_cycle;Max_cycle;Signal;HPM_P1;HPM_P2
2021/07/27 00:00:53;;;;;;;12.13;7.93;;;;;;;24.52;56.08;95285.31;4854001;29;20469;-86
2021/07/27 00:03:20;;;;;;;8.07;7.40;;;;;;;24.50;55.94;95281.19;4901719;29;20981;-85
2021/07/27 00:05:48;;;;;;;11.33;7.80;;;;;;;24.49;55.80;95283.06;4901931;29;20488;-86
2021/07/27 00:08:15;;;;;;;17.13;7.20;;;;;;;24.47;55.59;95279.75;4901779;29;20456;-86
2021/07/27 00:10:43;;;;;;;8.93;8.13;;;;;;;24.47;55.24;95284.28;4901611;29;20534;-86
2021/07/27 00:13:10;;;;;;;11.87;9.17;;;;;;;24.45;55.37;95287.19;4901945;29;20530;-86
2021/07/27 00:15:37;;;;;;;7.53;6.93;;;;;;;24.44;55.19;95280.16;4901839;29;20467;-86
2021/07/27 00:18:07;;;;;;;9.03;8.23;;;;;;;24.45;55.09;95283.69;4901753;29;20555;-86
2021/07/27 00:20:34;;;;;;;10.50;7.43;;;;;;;24.41;55.10;95280.59;4901803;29;20452;-86
2021/07/27 00:23:01;;;;;;;8.43;7.63;;;;;;;24.40;55.13;95284.28;4901840;29;20449;-86
2021/07/27 00:25:28;;;;;;;8.10;7.50;;;;;;;24.38;55.21;95281.81;4901886;29;20514;-86
2021/07/27 00:27:57;;;;;;;8.67;7.77;;;;;;;24.37;55.71;95282.03;4901460;29;20523;-85
2021/07/27 00:30:24;;;;;;;8.53;7.73;;;;;;;24.32;55.93;95281.81;4853473;29;20447;-86
2021/07/27 00:32:51;;;;;;;8.23;7.50;;;;;;;24.32;55.79;95281.81;4901722;29;20845;-86
2021/07/27 00:35:18;;;;;;;10.80;7.87;;;;;;;24.32;56.74;95281.81;4901318;29;20474;-86
2021/07/27 00:44:30;;;;;;;8.47;7.60;;;;;;;24.24;56.61;95284.66;4900486;29;20520;-87
2021/07/27 00:46:57;;;;;;;9.87;8.17;;;;;;;24.22;56.32;95284.03;4901463;29;20480;-86
2021/07/27 00:49:24;;;;;;;14.53;7.63;;;;;;;24.17;55.94;95289.19;4901414;29;20497;-86
2021/07/27 00:51:51;;;;;;;9.30;8.43;;;;;;;24.14;56.48;95287.75;4901188;29;20463;-86
2021/07/27 00:54:18;;;;;;;8.60;7.80;;;;;;;24.09;56.78;95288.34;4901021;29;20944;-86
2021/07/27 00:56:45;;;;;;;8.97;8.07;;;;;;;24.06;57.22;95288.78;4901552;29;20807;-87
2021/07/27 00:59:12;;;;;;;9.57;8.57;;;;;;;24.01;57.10;95283.19;4901309;29;20551;-87
2021/07/27 01:01:41;;;;;;;10.47;9.47;;;;;;;23.97;57.33;95281.94;4900842;29;20531;-86
2021/07/27 01:04:08;;;;;;;9.77;8.73;;;;;;;23.94;58.11;95284.19;4901027;29;20450;-86
2021/07/27 01:06:35;;;;;;;10.10;9.03;;;;;;;23.93;57.75;95283.38;4900779;29;20487;-86
2021/07/27 01:09:02;;;;;;;9.80;8.83;;;;;;;23.90;57.74;95297.19;4900920;29;20448;-86
2021/07/27 01:11:29;;;;;;;9.07;8.20;;;;;;;23.89;57.74;95287.47;4901177;29;20813;-87
2021/07/27 01:13:56;;;;;;;8.70;7.63;;;;;;;23.85;57.94;95291.59;4900828;29;20924;-87
2021/07/27 01:16:27;;;;;;;9.30;8.40;;;;;;;23.81;58.24;95295.72;4853007;29;20446;-86
2021/07/27 01:19:02;;;;;;;9.07;8.33;;;;;;;23.77;58.60;95289.94;4900809;29;20537;-86
2021/07/27 01:38:51;;;;;;;16.83;9.20;;;;;;;23.41;59.59;95286.66;4753311;30;20464;-87
2021/07/27 01:44:05;;;;;;;12.00;9.47;;;;;;;23.36;59.98;95291.78;4752874;30;20976;-87
2021/07/27 01:46:34;;;;;;;9.93;9.03;;;;;;;23.36;59.92;95289.94;4753003;30;20505;-87
2021/07/27 01:49:01;;;;;;;9.40;8.50;;;;;;;23.35;59.94;95288.28;4752648;30;20518;-87
2021/07/27 01:51:31;;;;;;;11.13;8.93;;;;;;;23.32;60.11;95287.84;4752887;30;20463;-87
2021/07/27 01:54:01;;;;;;;13.13;10.50;;;;;;;23.22;60.49;95280.19;4752813;30;20456;-87
2021/07/27 01:56:31;;;;;;;10.53;9.47;;;;;;;23.18;60.23;95274.41;4803170;29;20521;-87
2021/07/27 01:58:59;;;;;;;12.37;10.40;;;;;;;23.15;60.48;95276.66;4806469;29;20464;-86
2021/07/27 02:04:48;;;;;;;11.63;8.83;;;;;;;23.11;60.42;95283.41;4805146;29;20447;-86
2021/07/27 02:07:15;;;;;;;10.90;9.60;;;;;;;23.05;60.77;95281.53;4805924;29;20505;-86
2021/07/27 02:09:44;;;;;;;13.00;10.77;;;;;;;23.04;60.52;95278.03;4806203;29;20479;-87
2021/07/27 02:12:17;;;;;;;12.37;9.40;;;;;;;23.03;60.76;95278.22;4830856;29;20451;-87
2021/07/27 02:15:05;;;;;;;18.87;10.03;;;;;;;23.01;60.67;95282.97;4881366;29;20441;-87
2021/07/27 02:20:59;;;;;;;12.43;9.33;;;;;;;22.99;60.76;95290.38;4880998;29;20775;-87
2021/07/27 02:23:27;;;;;;;16.43;11.17;;;;;;;22.98;60.81;95289.53;4880512;29;20461;-87
2021/07/27 02:25:54;;;;;;;11.50;10.30;;;;;;;22.97;60.94;95287.06;4880921;29;20460;-86
2021/07/27 02:28:22;;;;;;;11.00;9.90;;;;;;;22.97;61.15;95287.06;4881598;29;20551;-87
2021/07/27 02:30:53;;;;;;;12.07;10.97;;;;;;;22.95;61.29;95289.94;4881059;29;20567;-86
2021/07/27 02:33:20;;;;;;;11.47;10.37;;;;;;;22.96;61.53;95290.75;4880920;29;20444;-87
2021/07/27 02:35:47;;;;;;;15.53;10.97;;;;;;;22.93;61.83;95288.47;4880940;29;20445;-87
2021/07/27 02:38:15;;;;;;;13.43;10.70;;;;;;;22.91;61.77;95295.88;4880749;29;21183;-87
2021/07/27 02:44:05;;;;;;;10.57;9.77;;;;;;;22.86;62.05;95283.91;4879623;29;20436;-87
2021/07/27 02:46:32;;;;;;;12.00;10.90;;;;;;;22.82;62.13;95279.94;4880904;29;20516;-87
2021/07/27 02:49:03;;;;;;;15.00;10.10;;;;;;;22.84;62.26;95285.97;4890912;29;20477;-87
2021/07/27 02:51:31;;;;;;;18.53;11.23;;;;;;;22.83;62.04;95286.13;4899578;29;20951;-87
2021/07/27 02:53:58;;;;;;;12.03;10.97;;;;;;;22.76;62.16;95280.72;4900047;29;20464;-87
2021/07/27 02:56:26;;;;;;;15.40;10.60;;;;;;;22.73;62.36;95291.81;4899831;29;20449;-87
2021/07/27 02:58:53;;;;;;;16.50;11.27;;;;;;;22.70;62.52;95294.88;4899454;29;20549;-87
2021/07/27 03:01:21;;;;;;;12.00;10.80;;;;;;;22.71;62.39;95304.56;4899600;29;20462;-87
2021/07/27 03:03:49;;;;;;;12.77;11.57;;;;;;;22.65;62.76;95304.50;4899361;29;20789;-86
2021/07/27 03:06:18;;;;;;;13.40;10.30;;;;;;;22.66;62.07;95304.31;4867324;29;20487;-87
2021/07/27 03:09:14;;;;;;;12.13;10.67;;;;;;;22.67;62.29;95308.66;4899084;29;20649;-87
2021/07/27 03:11:41;;;;;;;12.00;10.73;;;;;;;22.64;62.63;95309.03;4899320;29;20908;-87
2021/07/27 03:14:08;;;;;;;11.83;10.60;;;;;;;22.65;62.42;95309.88;4899592;29;20471;-87
2021/07/27 03:30:04;;;;;;;11.23;10.13;;;;;;;22.41;62.13;95311.94;4898599;29;20415;-84
2021/07/27 03:32:31;;;;;;;11.77;10.13;;;;;;;22.41;62.86;95305.75;4898170;29;20454;-80
2021/07/27 03:34:58;;;;;;;12.57;10.90;;;;;;;22.42;63.35;95305.56;4899106;29;20459;-82
2021/07/27 03:37:25;;;;;;;11.77;10.73;;;;;;;22.51;62.83;95308.91;4900953;29;20450;-76
2021/07/27 03:39:52;;;;;;;11.80;10.00;;;;;;;22.62;62.61;95324.47;4901748;29;20461;-83
2021/07/27 03:42:19;;;;;;;11.03;9.80;;;;;;;22.70;61.88;95323.47;4901846;29;20454;-80
2021/07/27 03:44:46;;;;;;;13.13;11.10;;;;;;;22.75;62.33;95323.72;4902276;29;20936;-81
2021/07/27 03:47:14;;;;;;;15.80;10.80;;;;;;;23.05;62.30;95319.00;4901661;29;20506;-79
2021/07/27 03:49:44;;;;;;;13.23;10.73;;;;;;;23.26;60.80;95318.13;4902299;29;20957;-80
2021/07/27 03:52:11;;;;;;;12.00;10.77;;;;;;;23.44;60.39;95321.94;4901808;29;20535;-81
2021/07/27 03:54:37;;;;;;;10.73;9.73;;;;;;;23.62;59.33;95317.91;4901538;29;20449;-80
2021/07/27 03:57:05;;;;;;;11.77;10.77;;;;;;;23.81;58.87;95325.19;4901931;29;20823;-79
2021/07/27 03:59:33;;;;;;;12.10;10.83;;;;;;;23.98;58.29;95333.69;4902072;29;20480;-80
2021/07/27 04:02:00;;;;;;;11.20;10.00;;;;;;;24.15;58.17;95336.84;4884602;29;20522;-81
2021/07/27 04:04:32;;;;;;;16.07;11.30;;;;;;;24.44;57.23;95330.31;4882622;29;20447;-80
2021/07/27 04:17:04;;;;;;;13.87;10.73;;;;;;;24.97;54.10;95333.84;4881985;29;20493;-80
2021/07/27 04:19:32;;;;;;;12.23;10.87;;;;;;;25.18;53.57;95339.00;4882997;29;20524;-81
2021/07/27 04:21:59;;;;;;;12.40;9.43;;;;;;;25.43;53.52;95332.94;4882751;29;20442;-80
2021/07/27 04:24:28;;;;;;;13.40;10.57;;;;;;;25.61;53.87;95338.47;4882451;29;21045;-84
2021/07/27 04:26:55;;;;;;;12.00;10.90;;;;;;;25.63;53.03;95341.78;4883036;29;20946;-83
2021/07/27 04:29:22;;;;;;;18.77;10.90;;;;;;;25.65;53.76;95345.06;4882896;29;20882;-86
2021/07/27 04:31:50;;;;;;;12.37;10.27;;;;;;;25.57;52.76;95340.75;4844548;29;20485;-85
2021/07/27 04:34:18;;;;;;;12.37;11.07;;;;;;;25.62;52.62;95338.25;4901933;29;20429;-86
2021/07/27 04:36:46;;;;;;;10.47;9.47;;;;;;;25.66;54.04;95335.97;4853727;29;20440;-84
2021/07/27 04:39:13;;;;;;;11.40;10.30;;;;;;;26.08;53.92;95336.44;4868818;29;20453;-85
2021/07/27 04:41:40;;;;;;;12.00;10.20;;;;;;;26.53;52.80;95335.34;4901502;29;20532;-84
2021/07/27 04:44:07;;;;;;;12.93;10.40;;;;;;;26.90;50.03;95335.50;4900984;29;20481;-84
2021/07/27 04:46:34;;;;;;;18.80;12.23;;;;;;;27.21;50.46;95323.84;4900824;29;20530;-84
2021/07/27 04:49:01;;;;;;;11.53;10.37;;;;;;;27.39;48.78;95323.00;4901135;29;20967;-85
2021/07/27 04:51:29;;;;;;;10.90;10.00;;;;;;;27.48;47.81;95329.78;4901740;29;20879;-89
2021/07/27 04:54:01;;;;;;;12.00;10.70;;;;;;;27.51;48.56;95326.63;4901692;29;20805;-88
2021/07/27 04:56:28;;;;;;;12.60;11.27;;;;;;;27.51;48.35;95323.13;4901577;29;20425;-89
2021/07/27 05:15:44;;;;;;;12.03;10.63;;;;;;;27.80;48.57;95341.25;4899792;29;20477;-85
2021/07/27 05:18:11;;;;;;;12.90;11.70;;;;;;;27.98;47.70;95337.69;4900210;29;20560;-85
2021/07/27 05:20:38;;;;;;;12.67;11.37;;;;;;;28.12;48.02;95343.78;4900929;29;20510;-85
2021/07/27 05:23:05;;;;;;;11.00;9.27;;;;;;;27.81;47.10;95347.47;4900483;29;20513;-85
2021/07/27 05:25:32;;;;;;;11.63;8.60;;;;;;;27.87;46.54;95350.09;4900176;29;20437;-85
2021/07/27 05:28:11;;;;;;;14.67;8.73;;;;;;;27.68;47.09;95351.97;4900123;29;20485;-85
2021/07/27 05:30:38;;;;;;;12.00;8.93;;;;;;;27.76;46.59;95350.84;4900328;29;20445;-85
2021/07/27 05:33:06;;;;;;;17.13;9.30;;;;;;;27.85;47.14;95352.19;4900190;29;20453;-85
2021/07/27 05:35:33;;;;;;;11.53;9.40;;;;;;;27.89;47.63;95347.16;4900637;29;20854;-85
2021/07/27 05:38:01;;;;;;;15.27;10.27;;;;;;;27.97;46.65;95357.63;4867265;29;20447;-85
2021/07/27 05:40:30;;;;;;;10.80;9.80;;;;;;;28.14;47.35;95353.28;4882769;29;20880;-85
2021/07/27 05:42:58;;;;;;;17.63;9.70;;;;;;;28.28;47.04;95354.75;4899706;29;20449;-85
2021/07/27 05:45:26;;;;;;;10.10;9.07;;;;;;;28.50;47.12;95362.38;4900297;29;20448;-86
2021/07/27 05:47:52;;;;;;;12.10;9.67;;;;;;;28.66;45.67;95359.84;4900062;29;20484;-86
2021/07/27 05:50:21;;;;;;;10.97;9.80;;;;;;;28.64;45.39;95358.44;4899618;29;20443;-85
2021/07/27 05:52:48;;;;;;;11.10;8.70;;;;;;;28.83;45.91;95357.28;4899457;29;20457;-85
2021/07/27 05:55:16;;;;;;;10.93;8.70;;;;;;;28.90;45.12;95355.31;4899547;29;20461;-85
2021/07/27 05:57:43;;;;;;;13.03;9.37;;;;;;;29.01;44.17;95356.41;4898749;29;20447;-85
2021/07/27 06:00:11;;;;;;;11.60;9.70;;;;;;;28.80;45.67;95357.75;4899644;29;20469;-85
2021/07/27 06:02:38;;;;;;;9.97;9.00;;;;;;;28.63;45.34;95360.31;4899514;29;20448;-85
2021/07/27 06:05:05;;;;;;;16.03;10.10;;;;;;;28.92;45.02;95364.03;4899436;29;20516;-85
2021/07/27 06:07:34;;;;;;;12.73;9.23;;;;;;;29.21;43.76;95361.50;4851462;29;20568;-85
2021/07/27 06:10:01;;;;;;;16.63;8.57;;;;;;;29.24;43.42;95366.41;4899380;29;20463;-85
2021/07/27 06:12:28;;;;;;;14.90;9.43;;;;;;;29.08;44.43;95362.53;4899712;29;20527;-85
2021/07/27 06:14:55;;;;;;;19.13;10.87;;;;;;;29.27;43.07;95366.78;4899509;29;20899;-85
2021/07/27 06:17:22;;;;;;;9.43;8.60;;;;;;;29.32;43.44;95371.47;4898992;29;20585;-85
2021/07/27 06:19:48;;;;;;;10.90;9.33;;;;;;;29.46;43.59;95369.38;4899387;29;20516;-85
2021/07/27 06:22:17;;;;;;;14.83;9.77;;;;;;;29.69;42.74;95368.53;4899298;29;20437;-85
2021/07/27 06:24:46;;;;;;;9.97;8.63;;;;;;;29.87;43.01;95362.97;4898671;29;20452;-85
2021/07/27 06:33:56;;;;;;;9.90;8.77;;;;;;;29.66;42.63;95352.78;4898023;29;21108;-88
2021/07/27 06:36:23;;;;;;;10.87;9.53;;;;;;;29.71;41.12;95347.47;4898753;29;20524;-85
2021/07/27 06:38:52;;;;;;;8.73;7.80;;;;;;;29.89;41.63;95345.44;4899519;29;20459;-85
2021/07/27 06:41:20;;;;;;;15.80;8.17;;;;;;;30.14;39.85;95342.47;4898983;29;20930;-85
2021/07/27 06:43:47;;;;;;;9.73;8.83;;;;;;;30.35;41.68;95342.84;4899608;29;21325;-85
2021/07/27 06:46:14;;;;;;;14.57;9.03;;;;;;;30.45;40.15;95341.16;4899443;29;20528;-85
2021/07/27 06:48:43;;;;;;;9.90;9.00;;;;;;;30.68;39.08;95345.66;4898885;29;20864;-86
2021/07/27 06:51:11;;;;;;;9.33;8.23;;;;;;;30.91;39.82;95341.97;4898534;29;20524;-85
2021/07/27 06:53:38;;;;;;;9.50;8.50;;;;;;;31.12;39.25;95340.41;4899595;29;20461;-85
2021/07/27 06:56:06;;;;;;;8.30;7.60;;;;;;;31.39;39.85;95341.41;4866174;29;20455;-85
2021/07/27 06:58:35;;;;;;;10.70;7.97;;;;;;;31.36;36.99;95341.91;4898999;29;20461;-85
2021/07/27 07:01:03;;;;;;;10.50;8.03;;;;;;;31.44;36.25;95336.03;4898619;29;20437;-85
2021/07/27 07:03:30;;;;;;;9.40;7.57;;;;;;;31.38;36.14;95338.94;4898782;29;20448;-85
2021/07/27 07:05:57;;;;;;;7.40;6.70;;;;;;;31.54;36.10;95340.00;4898883;29;20455;-85
2021/07/27 07:08:24;;;;;;;8.43;7.57;;;;;;;31.49;34.90;95343.44;4850457;29;20487;-85
2021/07/27 07:10:58;;;;;;;9.97;8.30;;;;;;;31.46;35.38;95334.97;4898450;29;20437;-86
2021/07/27 07:13:25;;;;;;;8.50;7.70;;;;;;;31.69;35.94;95332.06;4898319;29;20463;-85
2021/07/27 07:15:54;;;;;;;13.87;8.10;;;;;;;31.95;36.57;95328.63;4898518;29;20445;-85
2021/07/27 07:18:22;;;;;;;10.17;8.40;;;;;;;32.19;37.03;95333.78;4898671;29;20441;-84
2021/07/27 07:20:51;;;;;;;8.83;8.03;;;;;;;32.23;35.39;95343.06;4898161;29;20451;-85
2021/07/27 07:26:40;;;;;;;8.93;8.10;;;;;;;31.73;34.97;95327.78;4879528;29;20861;-85
2021/07/27 07:29:07;;;;;;;7.77;7.13;;;;;;;31.60;33.13;95318.09;4889531;29;20599;-86
2021/07/27 07:31:35;;;;;;;7.20;6.60;;;;;;;31.84;33.29;95324.16;4899093;29;20448;-85
2021/07/27 07:34:02;;;;;;;8.30;7.50;;;;;;;31.90;32.88;95320.41;4898774;29;20455;-84
2021/07/27 07:36:29;;;;;;;13.93;8.17;;;;;;;32.01;34.21;95316.75;4899108;29;20524;-85
2021/07/27 07:38:56;;;;;;;9.47;8.00;;;;;;;32.07;35.59;95319.50;4898624;29;20941;-85
2021/07/27 07:41:38;;;;;;;9.20;8.17;;;;;;;32.16;35.05;95315.28;4898956;29;20457;-82
2021/07/27 07:44:05;;;;;;;11.33;8.90;;;;;;;32.02;34.99;95326.53;4898885;29;20537;-84
2021/07/27 07:46:32;;;;;;;13.03;9.17;;;;;;;31.87;36.28;95329.06;4851186;29;20543;-85
2021/07/27 07:49:01;;;;;;;10.23;7.83;;;;;;;32.08;36.43;95329.28;4898590;29;20499;-85
2021/07/27 07:51:28;;;;;;;9.40;7.97;;;;;;;32.35;36.46;95322.03;4899157;29;20441;-85
2021/07/27 07:53:55;;;;;;;11.70;7.70;;;;;;;32.61;35.40;95326.66;4898776;29;20541;-85
2021/07/27 07:56:22;;;;;;;10.97;8.53;;;;;;;32.71;35.34;95319.69;4898612;29;20455;-85
2021/07/27 08:12:17;;;;;;;9.20;8.33;;;;;;;33.07;33.33;95332.53;4897281;29;20493;-84
2021/07/27 08:14:44;;;;;;;9.40;8.23;;;;;;;33.02;34.48;95328.97;4898532;29;20477;-84
2021/07/27 08:17:12;;;;;;;8.97;8.17;;;;;;;32.55;34.66;95330.41;4898454;29;20536;-84
2021/07/27 08:19:39;;;;;;;13.17;8.60;;;;;;;32.68;34.36;95323.75;4898287;29;20910;-84
2021/07/27 08:22:06;;;;;;;8.80;8.00;;;;;;;32.87;36.11;95327.75;4891627;29;20489;-84
2021/07/27 08:24:34;;;;;;;10.30;9.33;;;;;;;33.06;34.34;95328.19;4883014;29;20521;-84
2021/07/27 08:27:03;;;;;;;10.70;8.90;;;;;;;33.37;35.85;95326.53;4835122;29;20448;-84
2021/07/27 08:29:32;;;;;;;10.30;9.40;;;;;;;33.42;34.92;95328.44;4882441;29;20564;-85
2021/07/27 08:31:59;;;;;;;10.40;8.17;;;;;;;33.62;36.25;95327.75;4882547;29;20450;-84
2021/07/27 08:34:26;;;;;;;13.10;10.43;;;;;;;33.53;34.32;95330.16;4883317;29;20460;-85
2021/07/27 08:36:53;;;;;;;21.17;10.13;;;;;;;33.10;35.93;95323.03;4835733;29;20955;-85
2021/07/27 08:39:19;;;;;;;15.10;10.70;;;;;;;33.08;36.02;95314.31;4882958;29;20452;-85
2021/07/27 08:41:49;;;;;;;13.27;9.57;;;;;;;33.15;35.81;95321.16;4883107;29;20458;-86
2021/07/27 08:44:19;;;;;;;13.83;11.23;;;;;;;33.17;34.06;95321.72;4883099;29;20880;-86
2021/07/27 08:46:48;;;;;;;15.90;10.60;;;;;;;33.24;34.79;95322.31;4883209;29;20465;-86
2021/07/27 08:49:16;;;;;;;13.33;10.50;;;;;;;33.28;35.47;95319.09;4846068;29;20503;-86
2021/07/27 08:51:44;;;;;;;15.43;11.50;;;;;;;33.11;33.85;95314.59;4901406;29;20441;-85
2021/07/27 08:54:12;;;;;;;17.67;12.00;;;;;;;33.19;34.62;95324.19;4868603;29;20449;-86
2021/07/27 08:56:45;;;;;;;14.53;11.40;;;;;;;33.33;34.74;95319.16;4901844;29;20813;-86
2021/07/27 08:59:13;;;;;;;15.20;11.10;;;;;;;33.46;33.34;95314.06;4901699;29;20461;-86
2021/07/27 09:01:40;;;;;;;11.97;10.77;;;;;;;33.55;34.19;95308.94;4901149;29;20441;-86
2021/07/27 09:04:08;;;;;;;15.00;11.07;;;;;;;33.60;34.41;95311.69;4900881;29;20468;-85
2021/07/27 09:06:35;;;;;;;16.40;11.67;;;;;;;33.66;34.50;95316.09;4900700;29;20471;-85
2021/07/27 09:09:06;;;;;;;12.30;10.60;;;;;;;33.63;34.41;95308.44;4900858;29;20555;-85
2021/07/27 09:11:34;;;;;;;12.83;11.63;;;;;;;33.49;34.89;95313.53;4900554;29;20444;-84
2021/07/27 09:14:01;;;;;;;14.30;11.37;;;;;;;33.45;35.04;95319.75;4900003;29;20536;-85
2021/07/27 09:16:28;;;;;;;16.40;10.53;;;;;;;33.52;35.38;95317.63;4900383;29;20527;-85
2021/07/27 09:18:58;;;;;;;12.00;10.60;;;;;;;33.61;35.59;95307.06;4900590;29;20898;-85
2021/07/27 09:21:27;;;;;;;13.33;10.50;;;;;;;33.62;34.04;95309.53;4896286;29;20821;-86
2021/07/27 09:23:54;;;;;;;12.03;10.77;;;;;;;33.70;34.64;95306.28;4882235;29;20458;-87
2021/07/27 09:26:21;;;;;;;14.90;11.30;;;;;;;33.69;34.36;95295.69;4880998;29;21042;-86
2021/07/27 09:28:49;;;;;;;22.43;10.90;;;;;;;33.73;33.86;95296.78;4880334;29;20580;-87
2021/07/27 09:31:27;;;;;;;11.63;9.80;;;;;;;33.90;35.16;95299.34;4880589;29;20458;-86
2021/07/27 09:33:54;;;;;;;11.73;10.40;;;;;;;33.78;35.30;95294.88;4880158;29;20449;-86
2021/07/27 09:36:25;;;;;;;11.67;10.47;;;;;;;33.50;34.66;95298.00;4880889;29;20942;-87
2021/07/27 09:39:02;;;;;;;12.43;10.97;;;;;;;33.39;35.29;95290.88;4881797;29;20464;-87
2021/07/27 09:41:30;;;;;;;13.70;12.33;;;;;;;33.47;36.81;95293.91;4882022;29;20465;-87
2021/07/27 09:43:58;;;;;;;12.07;10.87;;;;;;;32.98;36.92;95287.88;4882199;29;20441;-86
2021/07/27 09:46:25;;;;;;;13.73;12.20;;;;;;;33.17;37.99;95299.97;4881352;29;20469;-87
2021/07/27 09:48:53;;;;;;;14.87;12.03;;;;;;;33.00;36.90;95295.78;4889871;29;20519;-87
2021/07/27 09:51:20;;;;;;;14.33;11.20;;;;;;;33.13;36.84;95296.13;4900006;29;21012;-86
2021/07/27 09:53:48;;;;;;;15.83;12.03;;;;;;;33.22;36.54;95291.81;4851843;29;20505;-86
2021/07/27 09:56:17;;;;;;;12.47;11.27;;;;;;;33.09;36.91;95286.84;4851987;29;20439;-86
2021/07/27 09:58:44;;;;;;;13.17;11.20;;;;;;;33.17;37.31;95291.81;4899820;29;20959;-86
2021/07/27 10:01:14;;;;;;;13.13;10.43;;;;;;;33.07;36.67;95280.84;4899363;29;20452;-86
2021/07/27 10:03:51;;;;;;;18.77;11.40;;;;;;;33.24;36.45;95283.41;4899122;29;20460;-86
2021/07/27 10:06:24;;;;;;;13.00;11.70;;;;;;;33.32;38.04;95282.16;4899301;29;20467;-86
2021/07/27 10:08:58;;;;;;;12.17;10.87;;;;;;;33.21;37.18;95276.59;4899562;29;20576;-87
2021/07/27 10:11:40;;;;;;;12.67;11.37;;;;;;;33.11;37.09;95273.00;4899218;29;20445;-86
2021/07/27 10:14:09;;;;;;;13.20;11.40;;;;;;;33.09;36.94;95265.09;4899513;29;20830;-87
2021/07/27 10:16:36;;;;;;;15.80;11.87;;;;;;;33.21;37.78;95262.97;4899449;29;20453;-86
2021/07/27 10:19:14;;;;;;;18.67;12.10;;;;;;;33.30;37.19;95265.22;4899887;29;20526;-87
2021/07/27 10:21:42;;;;;;;17.80;11.67;;;;;;;33.34;36.64;95263.66;4899401;29;21019;-87
2021/07/27 10:24:15;;;;;;;12.20;11.10;;;;;;;33.43;35.96;95265.59;4899075;29;20524;-86
2021/07/27 10:26:44;;;;;;;13.03;11.70;;;;;;;33.11;36.25;95257.50;4899339;29;20445;-86
2021/07/27 10:29:11;;;;;;;16.30;13.00;;;;;;;33.22;37.37;95256.47;4898954;29;20472;-88
2021/07/27 10:31:40;;;;;;;14.33;11.47;;;;;;;33.13;37.78;95254.50;4898970;29;20459;-77
2021/07/27 10:34:08;;;;;;;16.87;11.87;;;;;;;33.02;37.35;95248.19;4850724;29;20937;-81
2021/07/27 10:36:37;;;;;;;12.80;11.50;;;;;;;33.10;36.78;95257.75;4898602;29;21000;-77
2021/07/27 10:39:12;;;;;;;18.03;12.37;;;;;;;33.10;37.52;95249.59;4850699;29;20944;-76
2021/07/27 10:41:41;;;;;;;17.50;12.33;;;;;;;33.22;38.12;95242.84;4898451;29;20901;-76
2021/07/27 10:44:12;;;;;;;17.27;12.17;;;;;;;33.35;38.35;95246.25;4897621;29;20457;-76
2021/07/27 10:46:42;;;;;;;22.80;12.83;;;;;;;33.15;36.70;95242.28;4898891;29;20456;-80
2021/07/27 10:49:16;;;;;;;16.40;13.37;;;;;;;33.13;35.13;95232.75;4898653;29;20587;-78
2021/07/27 10:51:46;;;;;;;15.40;11.90;;;;;;;33.05;36.67;95235.97;4850911;29;20837;-78
2021/07/27 10:54:15;;;;;;;16.10;12.37;;;;;;;33.28;35.91;95230.13;4897943;29;20495;-78
2021/07/27 10:56:49;;;;;;;15.67;12.77;;;;;;;33.28;34.23;95238.28;4898216;29;20921;-78
2021/07/27 10:59:21;;;;;;;15.20;11.57;;;;;;;33.50;35.74;95229.97;4898734;29;20461;-82
2021/07/27 11:01:50;;;;;;;18.33;13.30;;;;;;;33.57;35.07;95227.84;4896608;29;20432;-82
2021/07/27 11:04:17;;;;;;;18.63;12.87;;;;;;;33.47;34.18;95227.78;4887988;29;20933;-83
2021/07/27 11:06:44;;;;;;;22.23;11.83;;;;;;;33.46;33.92;95226.16;4880153;29;20808;-82
2021/07/27 11:16:00;;;;;;;19.33;12.13;;;;;;;33.34;33.62;95222.84;4879565;29;20821;-81
2021/07/27 11:18:28;;;;;;;22.53;12.97;;;;;;;33.40;34.86;95221.78;4896425;29;21004;-82
2021/07/27 11:20:56;;;;;;;26.20;14.60;;;;;;;33.63;34.17;95210.44;4898753;29;20433;-82
2021/07/27 11:23:24;;;;;;;14.70;12.63;;;;;;;33.56;32.91;95215.34;4897988;29;20452;-82
2021/07/27 11:25:53;;;;;;;17.70;12.47;;;;;;;33.75;33.86;95208.31;4898001;29;20472;-82
2021/07/27 11:28:21;;;;;;;21.13;12.90;;;;;;;33.81;33.89;95212.66;4897951;29;20429;-81
2021/07/27 11:30:48;;;;;;;22.73;12.53;;;;;;;33.91;34.49;95208.41;4898437;29;20438;-83
2021/07/27 11:33:19;;;;;;;20.57;12.67;;;;;;;34.02;33.87;95208.13;4897742;29;20437;-80
2021/07/27 11:35:47;;;;;;;18.00;12.93;;;;;;;33.97;35.15;95199.97;4898275;29;20460;-81
2021/07/27 11:38:21;;;;;;;22.53;12.37;;;;;;;34.09;34.51;95194.25;4898167;29;20456;-79
2021/07/27 11:40:49;;;;;;;19.73;11.87;;;;;;;34.11;33.88;95200.25;4898473;29;20463;-82
2021/07/27 11:43:17;;;;;;;23.50;12.00;;;;;;;34.14;32.80;95200.56;4898073;29;20447;-83
2021/07/27 11:45:46;;;;;;;16.70;13.07;;;;;;;34.28;33.48;95192.66;4897766;29;20493;-82
2021/07/27 11:48:14;;;;;;;23.43;11.90;;;;;;;34.39;32.98;95197.03;4898346;29;20480;-82
2021/07/27 11:57:27;;;;;;;19.97;13.50;;;;;;;34.06;32.74;95184.72;4900912;29;20940;-82
2021/07/27 12:00:05;;;;;;;22.97;13.13;;;;;;;34.10;34.24;95182.25;4901841;29;20523;-81
2021/07/27 12:02:32;;;;;;;23.23;12.23;;;;;;;33.99;32.73;95184.16;4901883;29;20461;-79
2021/07/27 12:05:00;;;;;;;14.40;10.50;;;;;;;34.01;33.25;95187.44;4902071;29;20440;-82
2021/07/27 12:07:27;;;;;;;18.10;11.57;;;;;;;34.17;32.51;95186.38;4901199;29;20512;-83
2021/07/27 12:09:54;;;;;;;15.07;10.67;;;;;;;34.31;33.61;95177.66;4901196;29;20478;-81
2021/07/27 12:12:21;;;;;;;19.07;11.67;;;;;;;34.33;30.95;95181.75;4901340;29;20459;-82
2021/07/27 12:14:49;;;;;;;23.37;12.60;;;;;;;34.43;32.06;95184.53;4901351;29;20441;-81
2021/07/27 12:17:16;;;;;;;19.80;12.10;;;;;;;34.53;31.51;95174.72;4901578;29;20433;-83
2021/07/27 12:19:43;;;;;;;20.90;12.50;;;;;;;34.68;32.15;95172.78;4900618;29;20455;-83
2021/07/27 12:28:53;;;;;;;14.30;10.90;;;;;;;34.54;33.15;95173.63;4899936;29;20894;-82
2021/07/27 12:31:21;;;;;;;20.23;11.80;;;;;;;34.43;31.80;95162.72;4900677;29;20934;-82
2021/07/27 12:33:48;;;;;;;19.80;9.80;;;;;;;34.53;31.68;95161.91;4900840;29;20946;-77
2021/07/27 12:36:15;;;;;;;16.97;9.80;;;;;;;34.47;31.20;95154.81;4900959;29;20838;-81
2021/07/27 12:38:42;;;;;;;13.70;10.77;;;;;;;34.23;32.26;95154.50;4901603;29;20473;-82
2021/07/27 12:41:09;;;;;;;23.00;11.93;;;;;;;34.31;31.52;95148.50;4901134;29;20447;-82
2021/07/27 12:43:36;;;;;;;28.07;11.27;;;;;;;34.46;31.55;95155.91;4900818;29;20938;-81
2021/07/27 12:46:03;;;;;;;21.67;11.20;;;;;;;34.48;31.06;95157.25;4901091;29;20855;-82
2021/07/27 12:48:31;;;;;;;16.13;11.20;;;;;;;34.54;31.23;95154.53;4900162;29;20828;-77
2021/07/27 12:50:58;;;;;;;31.70;12.60;;;;;;;34.39;30.42;95147.97;4867193;29;20484;-77
2021/07/27 12:53:26;;;;;;;28.70;12.88;;;;;;;34.56;30.04;95138.72;4899119;29;20456;-77
2021/07/27 12:55:55;;;;;;;23.27;11.00;;;;;;;34.65;29.90;95142.50;4900382;29;20209;-78
2021/07/27 12:58:22;;;;;;;20.23;10.87;;;;;;;34.71;29.61;95138.72;4884897;29;20518;-77
2021/07/27 13:00:49;;;;;;;16.80;10.33;;;;;;;34.79;28.03;95127.22;4881618;29;20461;-78
2021/07/27 13:03:18;;;;;;;25.53;10.30;;;;;;;34.86;28.32;95138.69;4881756;29;20458;-79
2021/07/27 13:05:46;;;;;;;23.27;9.70;;;;;;;34.87;27.62;95134.88;4879017;29;20517;-77
2021/07/27 13:08:14;;;;;;;22.93;9.93;;;;;;;34.88;29.00;95133.78;4881658;29;20985;-78
2021/07/27 13:10:41;;;;;;;14.73;10.23;;;;;;;34.85;29.10;95126.16;4895078;29;20503;-79
2021/07/27 13:13:08;;;;;;;19.03;11.23;;;;;;;34.94;28.73;95121.75;4899959;29;20796;-78
2021/07/27 13:15:34;;;;;;;23.43;10.20;;;;;;;35.06;28.54;95126.91;4867220;29;21012;-78
2021/07/27 13:18:01;;;;;;;19.57;10.10;;;;;;;35.14;26.90;95120.06;4866925;29;20449;-77
2021/07/27 13:20:28;;;;;;;11.67;9.00;;;;;;;35.02;28.88;95115.75;4888505;29;20462;-78
2021/07/27 13:22:57;;;;;;;22.60;11.37;;;;;;;34.97;29.15;95121.19;4833191;29;20450;-78
2021/07/27 13:25:23;;;;;;;17.73;10.60;;;;;;;34.96;30.72;95118.75;4863711;29;20468;-78
2021/07/27 13:27:50;;;;;;;20.33;10.17;;;;;;;35.01;30.08;95119.56;4884226;29;20459;-77